Time;durP1;ratioP1;P1;durP2;ratioP2;P2;SDS_P1;SDS_P2;PMS_P1;PMS_P2;Temp;Humidity;BMP_temperature;BMP_pressure;BME280_temperature;BME280_humidity;BME280_pressure;Samples;Min_cycle;Max_cycle;Signal;HPM_P1;HPM_P2
2022/06/11 00:00:22;;;;;;;3.35;0.93;;;11.90;94.00;;;;;;5031152;28;20021;-73
2022/06/11 00:02:50;;;;;;;1.38;0.50;;;12.00;93.70;;;;;;5033819;28;20063;-72
2022/06/11 00:05:17;;;;;;;0.93;0.55;;;12.10;93.30;;;;;;5028812;28;20032;-74
2022/06/11 00:07:45;;;;;;;2.33;0.73;;;12.20;93.00;;;;;;5031033;28;20464;-71
2022/06/11 00:10:12;;;;;;;2.20;0.75;;;12.30;92.70;;;;;;5031298;28;20611;-69
2022/06/11 00:12:40;;;;;;;1.05;0.57;;;12.30;92.80;;;;;;5033628;28;20025;-68
2022/06/11 00:15:08;;;;;;;1.60;0.73;;;12.40;92.80;;;;;;5033915;28;20072;-68
2022/06/11 00:17:35;;;;;;;1.77;0.80;;;12.50;92.50;;;;;;5033839;28;20029;-69
2022/06/11 00:20:05;;;;;;;1.23;0.73;;;12.50;92.40;;;;;;5053069;28;20021;-69
2022/06/11 00:22:32;;;;;;;2.30;0.70;;;12.50;92.30;;;;;;5053118;28;20486;-73
2022/06/11 00:25:00;;;;;;;1.60;0.70;;;12.70;92.00;;;;;;5053622;28;20020;-69
2022/06/11 00:27:27;;;;;;;2.13;0.57;;;12.80;91.50;;;;;;5053104;28;20036;-70
2022/06/11 00:29:55;;;;;;;0.93;0.57;;;12.80;91.20;;;;;;5033176;28;20037;-68
2022/06/11 00:32:22;;;;;;;1.58;0.60;;;12.90;90.90;;;;;;5032938;28;20473;-67
2022/06/11 00:34:49;;;;;;;1.92;0.60;;;13.00;90.80;;;;;;5048094;28;20025;-74
2022/06/11 00:37:18;;;;;;;2.17;0.63;;;13.00;90.50;;;;;;5053026;28;20392;-73
2022/06/11 00:39:46;;;;;;;1.75;0.70;;;13.00;90.60;;;;;;5050446;28;20025;-68
2022/06/11 00:42:28;;;;;;;2.13;0.88;;;13.10;90.40;;;;;;5052977;28;20515;-69
2022/06/11 00:45:33;;;;;;;2.07;0.70;;;13.20;90.10;;;;;;5053113;28;20021;-68
2022/06/11 00:48:13;;;;;;;2.45;1.10;;;13.20;90.10;;;;;;5052686;28;20261;-71
2022/06/11 00:50:42;;;;;;;1.40;0.63;;;13.30;90.00;;;;;;5049906;28;20033;-66
2022/06/11 00:53:22;;;;;;;1.30;0.52;;;13.30;90.00;;;;;;5048564;28;20106;-73
2022/06/11 00:55:50;;;;;;;2.15;0.82;;;13.40;90.10;;;;;;5032002;28;20037;-71
2022/06/11 00:58:22;;;;;;;1.85;0.70;;;13.40;90.30;;;;;;5046818;28;20055;-70
2022/06/11 01:00:53;;;;;;;2.08;0.70;;;13.50;90.10;;;;;;5050449;28;20013;-69
2022/06/11 01:03:30;;;;;;;0.93;0.70;;;13.60;90.10;;;;;;5051807;28;20029;-73
2022/06/11 01:06:33;;;;;;;1.65;0.52;;;13.70;88.30;;;;;;5052466;28;20017;-71
2022/06/11 01:09:30;;;;;;;2.08;0.50;;;13.70;88.80;;;;;;5051702;28;20017;-72
2022/06/11 01:12:07;;;;;;;1.80;0.63;;;13.80;87.50;;;;;;5033479;28;20482;-73
2022/06/11 01:14:43;;;;;;;1.58;0.60;;;13.80;87.30;;;;;;5031319;28;20025;-71
2022/06/11 01:17:33;;;;;;;1.58;0.57;;;13.90;87.00;;;;;;5040538;28;20599;-67
2022/06/11 01:20:25;;;;;;;1.83;0.60;;;14.00;86.70;;;;;;5022373;28;20053;-71
2022/06/11 01:23:14;;;;;;;34.78;2.25;;;14.20;86.40;;;;;;5046589;28;20018;-71
2022/06/11 01:25:53;;;;;;;2.42;0.50;;;14.30;85.90;;;;;;5028902;28;20030;-72
2022/06/11 01:28:51;;;;;;;1.85;0.52;;;14.30;86.80;;;;;;5012045;28;20026;-66
2022/06/11 01:31:37;;;;;;;3.63;0.70;;;14.30;86.50;;;;;;5012437;28;20030;-68
2022/06/11 01:34:07;;;;;;;1.92;0.70;;;14.40;85.80;;;;;;5012215;28;20026;-68
2022/06/11 01:36:40;;;;;;;1.00;0.65;;;14.50;86.20;;;;;;5033015;28;20374;-65
2022/06/11 01:39:17;;;;;;;1.48;0.60;;;14.60;85.60;;;;;;5041206;28;20042;-72
2022/06/11 01:41:47;;;;;;;1.58;0.70;;;14.70;85.70;;;;;;5027952;28;20716;-66
2022/06/11 01:44:24;;;;;;;2.63;0.65;;;14.70;85.40;;;;;;5035094;28;20041;-68
2022/06/11 01:46:54;;;;;;;2.45;0.60;;;14.90;85.20;;;;;;5032070;28;20021;-66
2022/06/11 01:49:21;;;;;;;2.90;0.70;;;15.00;85.20;;;;;;5030767;28;20704;-69
2022/06/11 01:52:16;;;;;;;2.15;0.77;;;15.30;84.50;;;;;;5039431;28;20017;-69
2022/06/11 01:55:04;;;;;;;3.72;0.60;;;15.50;84.10;;;;;;5011340;28;20046;-69
2022/06/11 01:57:41;;;;;;;0.70;0.50;;;15.70;82.30;;;;;;5047903;28;20116;-66
2022/06/11 02:00:15;;;;;;;0.90;0.57;;;16.00;82.70;;;;;;5031329;28;20025;-71
2022/06/11 02:03:15;;;;;;;0.82;0.70;;;16.00;79.80;;;;;;5044112;28;20398;-70
2022/06/11 02:06:14;;;;;;;1.38;0.60;;;16.10;79.70;;;;;;5031468;28;20048;-67
2022/06/11 02:09:00;;;;;;;1.80;0.65;;;16.20;80.70;;;;;;5008696;28;20033;-72
2022/06/11 02:11:46;;;;;;;0.63;0.40;;;16.30;79.30;;;;;;5041146;28;20466;-65
2022/06/11 02:14:33;;;;;;;1.10;0.60;;;16.30;79.40;;;;;;5051445;28;20106;-68
2022/06/11 02:17:12;;;;;;;2.05;0.50;;;16.40;78.10;;;;;;5041471;28;20097;-68
2022/06/11 02:19:56;;;;;;;1.58;0.57;;;16.30;78.20;;;;;;5031590;28;20060;-68
2022/06/11 02:22:29;;;;;;;3.65;0.50;;;16.30;78.00;;;;;;5031819;28;20028;-66
2022/06/11 02:25:07;;;;;;;1.77;0.50;;;16.40;77.80;;;;;;5038591;28;20021;-65
2022/06/11 02:27:36;;;;;;;0.60;0.50;;;16.50;78.00;;;;;;5045589;28;20025;-69
2022/06/11 02:30:07;;;;;;;2.83;0.50;;;16.60;78.10;;;;;;5049859;28;20540;-67
2022/06/11 02:32:34;;;;;;;1.67;1.05;;;16.80;78.00;;;;;;5065812;28;20036;-69
2022/06/11 02:35:07;;;;;;;1.67;0.60;;;17.00;75.30;;;;;;5042040;28;20024;-67
2022/06/11 02:37:48;;;;;;;0.95;0.47;;;17.10;75.50;;;;;;5050033;28;20037;-67
2022/06/11 02:40:23;;;;;;;6.07;1.00;;;17.20;75.70;;;;;;5033416;28;20037;-68
2022/06/11 02:42:52;;;;;;;0.70;0.50;;;17.30;75.80;;;;;;5047083;28;20037;-67
2022/06/11 02:45:20;;;;;;;0.63;0.40;;;17.60;74.50;;;;;;5031188;28;20072;-74
2022/06/11 02:47:50;;;;;;;2.38;0.60;;;17.90;73.70;;;;;;5031496;28;20026;-71
2022/06/11 02:50:23;;;;;;;2.60;0.65;;;18.40;72.30;;;;;;5059302;28;20036;-70
2022/06/11 02:52:52;;;;;;;0.95;0.73;;;18.50;72.70;;;;;;5052988;28;20601;-67
2022/06/11 02:55:20;;;;;;;1.80;0.50;;;18.90;71.40;;;;;;5031648;28;20114;-70
2022/06/11 02:57:51;;;;;;;0.85;0.40;;;19.10;71.30;;;;;;5050287;28;20048;-74
2022/06/11 03:00:31;;;;;;;0.70;0.70;;;19.00;70.00;;;;;;5050250;28;20435;-74
2022/06/11 03:03:05;;;;;;;1.77;0.77;;;19.10;69.80;;;;;;5050990;28;20386;-73
2022/06/11 03:05:34;;;;;;;2.03;0.60;;;19.40;70.00;;;;;;5045118;28;20653;-68
2022/06/11 03:08:09;;;;;;;2.45;0.50;;;19.60;68.20;;;;;;5030733;28;20080;-70
2022/06/11 03:10:37;;;;;;;0.63;0.60;;;19.90;68.60;;;;;;5049115;28;20521;-70
2022/06/11 03:13:06;;;;;;;1.48;0.40;;;20.00;67.20;;;;;;5010012;28;20049;-70
2022/06/11 03:15:34;;;;;;;1.75;0.60;;;20.00;65.30;;;;;;5015315;28;20024;-74
2022/06/11 03:18:02;;;;;;;2.22;0.60;;;20.00;65.10;;;;;;5035815;28;20037;-70
2022/06/11 03:20:32;;;;;;;1.73;0.70;;;20.10;65.40;;;;;;5050755;28;20025;-66
2022/06/11 03:22:59;;;;;;;0.80;0.47;;;20.30;66.20;;;;;;5037873;28;20017;-72
2022/06/11 03:25:27;;;;;;;0.90;0.40;;;20.40;64.20;;;;;;5049093;28;20037;-74
2022/06/11 03:27:58;;;;;;;0.70;0.50;;;20.40;65.40;;;;;;5049450;28;20091;-77
2022/06/11 03:30:26;;;;;;;0.93;0.50;;;20.60;63.80;;;;;;5044756;28;20036;-75
2022/06/11 03:32:57;;;;;;;2.45;0.43;;;20.90;63.50;;;;;;5030353;28;20076;-70
2022/06/11 03:35:34;;;;;;;2.78;0.70;;;21.40;63.40;;;;;;5042362;28;20040;-78
2022/06/11 03:38:07;;;;;;;1.10;0.50;;;22.20;62.30;;;;;;5050900;28;20415;-78
2022/06/11 03:40:55;;;;;;;1.80;0.45;;;22.40;60.70;;;;;;5045088;28;20029;-80
2022/06/11 03:43:28;;;;;;;2.83;1.05;;;22.50;60.10;;;;;;5057265;28;20063;-69
2022/06/11 03:45:55;;;;;;;1.48;0.40;;;22.80;59.40;;;;;;5048039;28;20030;-70
2022/06/11 03:48:22;;;;;;;0.70;0.35;;;23.10;57.50;;;;;;5051673;28;20023;-77
2022/06/11 03:50:52;;;;;;;3.17;0.57;;;23.20;56.30;;;;;;5044352;28;20107;-69
2022/06/11 03:53:20;;;;;;;1.55;0.60;;;23.20;55.70;;;;;;5031909;28;20049;-77
2022/06/11 03:55:47;;;;;;;2.35;0.50;;;23.10;55.30;;;;;;5033923;28;20026;-77
2022/06/11 03:58:15;;;;;;;1.40;0.50;;;22.90;54.60;;;;;;5033465;28;20053;-69
2022/06/11 04:03:30;;;;;;;3.25;0.50;;;22.40;55.60;;;;;;5033649;28;20378;-71
2022/06/11 04:05:58;;;;;;;2.05;0.70;;;21.90;55.80;;;;;;5038665;28;20367;-67
2022/06/11 04:08:28;;;;;;;2.20;1.00;;;21.50;56.40;;;;;;5033189;28;20032;-67
2022/06/11 04:10:58;;;;;;;2.25;0.70;;;21.00;56.60;;;;;;5033457;28;20036;-72
2022/06/11 04:13:27;;;;;;;2.95;0.60;;;20.60;57.70;;;;;;5032548;28;20060;-73
2022/06/11 04:15:56;;;;;;;2.22;0.50;;;20.10;58.00;;;;;;5033448;28;20045;-67
2022/06/11 04:18:38;;;;;;;1.25;0.40;;;19.70;59.30;;;;;;5033221;28;20087;-69
2022/06/11 04:21:09;;;;;;;2.30;0.50;;;19.10;59.00;;;;;;5032801;28;20120;-71
2022/06/11 04:23:38;;;;;;;1.50;0.40;;;18.80;60.40;;;;;;5033403;28;20021;-70
2022/06/11 04:26:10;;;;;;;1.92;0.70;;;18.60;61.10;;;;;;5033015;28;20014;-73
2022/06/11 04:28:38;;;;;;;2.47;0.63;;;18.30;60.80;;;;;;5032745;28;20017;-71
2022/06/11 04:31:08;;;;;;;2.40;0.60;;;18.10;61.50;;;;;;5047412;28;20026;-76
2022/06/11 04:33:36;;;;;;;1.50;0.47;;;17.90;61.10;;;;;;5031327;28;20029;-71
2022/06/11 04:36:05;;;;;;;2.92;0.93;;;17.70;60.90;;;;;;5031330;28;20025;-72
2022/06/11 04:38:32;;;;;;;1.80;0.55;;;17.50;62.20;;;;;;5031866;28;20515;-76
2022/06/11 04:41:00;;;;;;;2.17;0.50;;;17.40;61.90;;;;;;5032413;28;20025;-74
2022/06/11 04:43:28;;;;;;;4.15;1.02;;;17.20;61.70;;;;;;5032456;28;20021;-77
2022/06/11 04:45:55;;;;;;;1.17;0.50;;;17.20;61.80;;;;;;5032761;28;20026;-73
2022/06/11 04:48:22;;;;;;;1.60;0.57;;;17.20;62.40;;;;;;5033215;28;20101;-72
2022/06/11 04:50:50;;;;;;;2.78;0.50;;;17.20;62.00;;;;;;5032572;28;20017;-74
2022/06/11 04:53:17;;;;;;;4.10;0.60;;;17.20;62.00;;;;;;5032591;28;20112;-72
2022/06/11 04:55:45;;;;;;;2.80;0.90;;;17.20;62.90;;;;;;5032096;28;20100;-66
2022/06/11 04:58:13;;;;;;;1.05;0.50;;;17.20;62.70;;;;;;5032060;28;20112;-74
2022/06/11 05:00:40;;;;;;;1.95;0.80;;;17.20;63.50;;;;;;5032238;28;20021;-75
2022/06/11 05:03:08;;;;;;;3.60;0.60;;;17.10;62.80;;;;;;5032406;28;20105;-67
2022/06/11 05:05:35;;;;;;;1.85;0.70;;;17.10;63.60;;;;;;5032109;28;20021;-73
2022/06/11 05:08:03;;;;;;;2.05;0.80;;;17.20;63.70;;;;;;5031793;28;20889;-68
2022/06/11 05:10:34;;;;;;;1.17;0.50;;;17.30;63.20;;;;;;5031823;28;20032;-72
2022/06/11 05:13:03;;;;;;;2.53;0.88;;;17.30;62.40;;;;;;5031276;28;20386;-77
2022/06/11 05:15:31;;;;;;;1.70;0.55;;;17.30;63.10;;;;;;5030364;28;20037;-70
2022/06/11 05:17:59;;;;;;;1.77;0.47;;;17.20;63.30;;;;;;5030547;28;20516;-72
2022/06/11 05:20:26;;;;;;;1.55;0.77;;;17.20;63.30;;;;;;5030599;28;20431;-74
2022/06/11 05:22:54;;;;;;;2.15;0.80;;;17.20;63.20;;;;;;5030306;28;20140;-73
2022/06/11 05:25:22;;;;;;;1.73;0.50;;;17.20;62.90;;;;;;5030700;28;20116;-74
2022/06/11 05:27:49;;;;;;;1.85;0.60;;;17.20;61.40;;;;;;5031047;28;20470;-71
2022/06/11 05:30:22;;;;;;;3.45;1.25;;;17.20;62.40;;;;;;5032018;28;20029;-76
2022/06/11 05:32:52;;;;;;;1.15;0.50;;;17.30;62.20;;;;;;5031946;28;20465;-74
2022/06/11 05:35:24;;;;;;;1.52;0.68;;;17.50;60.90;;;;;;5031577;28;20034;-75
2022/06/11 05:37:53;;;;;;;1.33;0.60;;;17.70;60.30;;;;;;5031845;28;20063;-69
2022/06/11 05:40:28;;;;;;;5.07;0.80;;;17.80;60.70;;;;;;5032127;28;20259;-75
2022/06/11 05:42:56;;;;;;;1.98;0.68;;;17.80;61.20;;;;;;5031111;28;20061;-76
2022/06/11 05:45:36;;;;;;;2.40;0.50;;;17.70;60.30;;;;;;5031899;28;20021;-69
2022/06/11 05:48:05;;;;;;;2.08;0.70;;;17.60;61.50;;;;;;5031756;28;20017;-72
2022/06/11 05:50:37;;;;;;;2.13;0.50;;;17.40;62.30;;;;;;5063550;28;20398;-74
2022/06/11 05:53:06;;;;;;;3.00;0.70;;;17.40;61.70;;;;;;5031175;28;20028;-73
2022/06/11 05:55:39;;;;;;;2.65;0.60;;;17.40;61.80;;;;;;5030193;28;20041;-72
2022/06/11 05:58:13;;;;;;;2.17;0.50;;;17.50;61.70;;;;;;5018389;28;20040;-73
2022/06/11 06:00:41;;;;;;;2.13;0.47;;;17.60;62.40;;;;;;5012116;28;20085;-69
2022/06/11 06:03:08;;;;;;;1.10;0.55;;;17.70;61.20;;;;;;5010631;28;20112;-77
2022/06/11 06:05:36;;;;;;;1.42;0.60;;;17.80;62.20;;;;;;5019778;28;20041;-74
2022/06/11 06:08:06;;;;;;;0.93;0.60;;;17.80;62.20;;;;;;5032079;28;20042;-75
2022/06/11 06:10:34;;;;;;;0.73;0.50;;;17.70;61.80;;;;;;5037101;28;20735;-74
2022/06/11 06:13:45;;;;;;;3.63;0.98;;;17.40;62.50;;;;;;5046142;28;20091;-71
2022/06/11 06:15:51;;;;;;;1.42;0.50;;;17.10;63.00;;;;;;5034353;28;20029;-69
2022/06/11 06:18:19;;;;;;;1.33;0.50;;;16.90;64.00;;;;;;5034066;28;20455;-68
2022/06/11 06:20:49;;;;;;;1.40;0.73;;;16.60;64.50;;;;;;5029785;28;20032;-74
2022/06/11 06:23:17;;;;;;;2.20;1.13;;;16.40;65.10;;;;;;5049704;28;20029;-79
2022/06/11 06:25:44;;;;;;;1.73;0.57;;;16.30;65.90;;;;;;5035275;28;20056;-78
2022/06/11 06:28:12;;;;;;;2.70;1.25;;;16.10;66.30;;;;;;5030121;28;20029;-72
2022/06/11 06:30:40;;;;;;;2.63;0.85;;;15.90;66.50;;;;;;5018830;28;20050;-70
2022/06/11 06:33:07;;;;;;;2.03;0.55;;;15.70;67.70;;;;;;5043295;28;20032;-73
2022/06/11 06:35:35;;;;;;;1.38;0.60;;;15.60;68.50;;;;;;5031529;28;20017;-73
2022/06/11 06:38:03;;;;;;;3.63;0.77;;;15.40;68.70;;;;;;5030641;28;20061;-76
2022/06/11 06:40:30;;;;;;;3.42;0.80;;;15.20;68.90;;;;;;5042814;28;20048;-79
2022/06/11 06:42:57;;;;;;;2.40;0.70;;;15.10;68.80;;;;;;5049994;28;20029;-79
2022/06/11 06:45:25;;;;;;;2.55;0.90;;;15.10;69.00;;;;;;5044168;28;20116;-77
2022/06/11 06:47:52;;;;;;;4.10;0.80;;;14.90;69.10;;;;;;5030804;28;20053;-71
2022/06/11 06:50:19;;;;;;;3.00;0.75;;;14.80;69.60;;;;;;5030704;28;20056;-76
2022/06/11 06:52:47;;;;;;;2.72;0.98;;;14.70;69.70;;;;;;5045023;28;20028;-73
2022/06/11 06:55:16;;;;;;;3.17;1.00;;;14.60;69.90;;;;;;5045339;28;20033;-70
2022/06/11 06:57:43;;;;;;;2.35;1.10;;;14.60;70.50;;;;;;5030961;28;20034;-77
2022/06/11 07:00:12;;;;;;;4.78;1.95;;;14.50;70.70;;;;;;5031441;28;20021;-78
2022/06/11 07:02:40;;;;;;;2.72;1.73;;;14.40;70.90;;;;;;5042643;28;20033;-74
2022/06/11 07:05:09;;;;;;;3.47;1.40;;;14.30;71.20;;;;;;5061772;28;20052;-76
2022/06/11 07:07:40;;;;;;;4.70;1.48;;;14.20;71.70;;;;;;5030274;28;20029;-68
2022/06/11 07:10:12;;;;;;;5.20;1.45;;;14.10;71.80;;;;;;5030554;28;20029;-76
2022/06/11 07:12:39;;;;;;;7.57;2.35;;;14.10;72.50;;;;;;5040373;28;20091;-76
2022/06/11 07:15:07;;;;;;;4.55;1.55;;;14.00;72.30;;;;;;5030457;28;20017;-77
2022/06/11 07:17:40;;;;;;;3.30;1.35;;;13.90;72.70;;;;;;5029762;28;20026;-77
2022/06/11 07:20:15;;;;;;;2.08;0.70;;;13.90;72.60;;;;;;5046460;28;20026;-78
2022/06/11 07:22:53;;;;;;;2.33;1.02;;;13.90;72.80;;;;;;5038356;28;20029;-76
2022/06/11 07:25:21;;;;;;;1.92;1.05;;;13.80;73.20;;;;;;5020844;28;20017;-74
2022/06/11 07:27:53;;;;;;;3.92;0.98;;;13.70;73.40;;;;;;5034478;28;20029;-78
2022/06/11 07:30:24;;;;;;;2.08;1.17;;;13.60;73.60;;;;;;5035365;28;20497;-74
2022/06/11 07:33:05;;;;;;;3.53;1.20;;;13.60;74.10;;;;;;5048796;28;20390;-74
2022/06/11 07:35:37;;;;;;;3.80;0.95;;;13.50;73.80;;;;;;5045497;28;20037;-77
2022/06/11 07:38:10;;;;;;;3.45;1.05;;;13.50;73.60;;;;;;5032293;28;20025;-77
2022/06/11 07:40:38;;;;;;;1.77;1.00;;;13.40;73.30;;;;;;5034684;28;20586;-80
2022/06/11 07:43:08;;;;;;;3.20;1.10;;;13.40;73.40;;;;;;5049969;28;20025;-79
2022/06/11 07:45:45;;;;;;;2.28;1.10;;;13.40;73.20;;;;;;5043882;28;20021;-76
2022/06/11 07:48:13;;;;;;;3.72;1.75;;;13.40;73.60;;;;;;5033815;28;20402;-79
2022/06/11 07:50:46;;;;;;;2.00;1.02;;;13.30;73.80;;;;;;5049741;28;20029;-73
2022/06/11 07:53:14;;;;;;;3.15;1.52;;;13.30;74.00;;;;;;5066028;28;20040;-76
2022/06/11 07:55:44;;;;;;;3.55;1.20;;;13.20;74.20;;;;;;5052499;28;20100;-74
2022/06/11 07:58:13;;;;;;;3.05;1.17;;;13.10;74.10;;;;;;5012156;28;20030;-77
2022/06/11 08:00:44;;;;;;;2.75;1.30;;;13.10;74.20;;;;;;5030152;28;20111;-76
2022/06/11 08:03:13;;;;;;;4.47;1.37;;;13.10;74.20;;;;;;5012971;28;20034;-76
2022/06/11 08:05:41;;;;;;;3.10;1.15;;;13.10;74.50;;;;;;5029278;28;20721;-78
2022/06/11 08:08:09;;;;;;;6.50;1.17;;;13.00;74.20;;;;;;5041236;28;20026;-77
2022/06/11 08:10:40;;;;;;;4.63;2.05;;;13.00;74.60;;;;;;5032387;28;20033;-79
2022/06/11 08:13:10;;;;;;;7.15;1.65;;;12.90;74.70;;;;;;5050616;28;20099;-75
2022/06/11 08:15:39;;;;;;;2.83;1.58;;;12.90;74.80;;;;;;5051199;28;20023;-78
2022/06/11 08:18:07;;;;;;;3.55;1.17;;;12.80;75.10;;;;;;5031494;28;20040;-78
2022/06/11 08:20:39;;;;;;;4.10;1.33;;;12.80;74.80;;;;;;5044946;28;20021;-79
2022/06/11 08:23:09;;;;;;;2.45;1.10;;;12.70;75.00;;;;;;5051301;28;20044;-75
2022/06/11 08:25:37;;;;;;;3.60;1.92;;;12.70;75.00;;;;;;5052626;28;20075;-76
2022/06/11 08:28:05;;;;;;;4.63;0.90;;;12.70;75.10;;;;;;5031895;28;20052;-77
2022/06/11 08:30:35;;;;;;;3.15;1.85;;;12.70;74.80;;;;;;5032686;28;20021;-77
2022/06/11 08:33:03;;;;;;;11.95;6.20;;;12.60;74.80;;;;;;5053554;28;20021;-74
2022/06/11 08:35:33;;;;;;;3.42;1.20;;;12.60;75.20;;;;;;5053073;28;20025;-80
2022/06/11 08:38:02;;;;;;;4.22;1.20;;;12.60;75.30;;;;;;5042067;28;20041;-78
2022/06/11 08:40:41;;;;;;;3.78;1.20;;;12.50;75.80;;;;;;5032994;28;20028;-78
2022/06/11 08:43:37;;;;;;;2.85;1.92;;;12.50;75.10;;;;;;5032895;28;20021;-78
2022/06/11 08:46:15;;;;;;;3.72;1.50;;;12.40;75.20;;;;;;5034728;28;20153;-76
2022/06/11 08:49:09;;;;;;;3.30;1.00;;;12.40;75.40;;;;;;5037577;28;20033;-76
2022/06/11 08:51:42;;;;;;;2.55;1.02;;;12.40;75.60;;;;;;5047885;28;20477;-78
2022/06/11 08:54:14;;;;;;;5.32;1.35;;;12.40;75.70;;;;;;5052629;28;20060;-77
2022/06/11 08:57:20;;;;;;;3.78;1.17;;;12.40;75.60;;;;;;5044736;28;20539;-77
2022/06/11 09:00:09;;;;;;;2.88;1.30;;;12.30;75.90;;;;;;5024905;28;20048;-76
2022/06/11 09:02:45;;;;;;;2.72;1.08;;;12.30;76.20;;;;;;5052732;28;20116;-77
2022/06/11 09:05:28;;;;;;;3.55;1.73;;;12.40;75.90;;;;;;5053463;28;20036;-77
2022/06/11 09:08:13;;;;;;;4.60;2.17;;;12.20;76.10;;;;;;5043795;28;20022;-77
2022/06/11 09:10:59;;;;;;;3.53;1.65;;;12.20;76.30;;;;;;5042075;28;20029;-76
2022/06/11 09:13:32;;;;;;;4.78;1.30;;;12.10;76.90;;;;;;5050792;28;20029;-76
2022/06/11 09:16:08;;;;;;;5.43;1.60;;;12.20;76.40;;;;;;5049929;28;20489;-74
2022/06/11 09:18:44;;;;;;;4.45;2.30;;;12.10;76.40;;;;;;5032073;28;20140;-75
2022/06/11 09:21:21;;;;;;;4.03;1.67;;;12.10;76.30;;;;;;5032876;28;20065;-78
2022/06/11 09:24:13;;;;;;;3.42;1.60;;;12.20;76.50;;;;;;5051501;28;20033;-76
2022/06/11 09:26:50;;;;;;;3.28;1.17;;;12.00;76.80;;;;;;5043031;28;20466;-71
2022/06/11 09:29:29;;;;;;;4.97;1.33;;;12.00;77.10;;;;;;5032238;28;20030;-71
2022/06/11 09:32:17;;;;;;;5.18;1.48;;;12.00;77.20;;;;;;5051955;28;20090;-71
2022/06/11 09:34:54;;;;;;;3.83;0.98;;;12.00;77.60;;;;;;5051653;28;20056;-76
2022/06/11 09:37:36;;;;;;;2.63;0.98;;;12.00;77.20;;;;;;5047167;28;20061;-70
2022/06/11 09:40:22;;;;;;;2.77;1.00;;;11.90;77.20;;;;;;5051652;28;20032;-71
2022/06/11 09:43:06;;;;;;;4.57;1.50;;;11.90;77.40;;;;;;5051208;28;20285;-76
2022/06/11 09:45:40;;;;;;;5.63;1.77;;;11.90;77.50;;;;;;5050489;28;20555;-73
2022/06/11 09:49:02;;;;;;;4.63;2.15;;;11.90;77.30;;;;;;5049194;28;20028;-77
2022/06/11 09:51:49;;;;;;;2.70;1.10;;;11.90;77.20;;;;;;5009249;28;20041;-74
2022/06/11 09:54:40;;;;;;;3.70;1.10;;;11.90;77.40;;;;;;4953956;28;20070;-77
2022/06/11 09:57:21;;;;;;;4.53;1.27;;;11.80;77.80;;;;;;5023577;28;20132;-72
2022/06/11 09:59:56;;;;;;;7.93;3.42;;;11.70;78.10;;;;;;5031590;28;20056;-73
2022/06/11 10:02:37;;;;;;;4.35;1.27;;;11.70;77.80;;;;;;5031977;28;20021;-76
2022/06/11 10:05:14;;;;;;;4.03;1.25;;;11.70;78.20;;;;;;5031776;28;20025;-76
2022/06/11 10:07:47;;;;;;;5.25;1.38;;;11.70;78.50;;;;;;5040415;28;20091;-75
2022/06/11 10:10:21;;;;;;;3.83;1.50;;;11.60;78.30;;;;;;5051072;28;20024;-78
2022/06/11 10:13:34;;;;;;;6.63;1.50;;;11.60;78.40;;;;;;5051395;28;20013;-75
2022/06/11 10:16:25;;;;;;;3.95;1.05;;;11.50;78.50;;;;;;5038068;28;20060;-76
2022/06/11 10:18:55;;;;;;;5.18;1.38;;;11.70;78.80;;;;;;5024297;28;20105;-74
2022/06/11 10:21:26;;;;;;;4.45;1.20;;;11.50;78.60;;;;;;5031424;28;20053;-74
2022/06/11 10:23:56;;;;;;;4.75;1.90;;;11.50;78.90;;;;;;5031769;28;20080;-76
2022/06/11 10:26:40;;;;;;;2.78;1.40;;;11.40;79.30;;;;;;5041182;28;20105;-75
2022/06/11 10:29:42;;;;;;;7.57;1.20;;;11.40;79.40;;;;;;5039619;28;20025;-73
2022/06/11 10:32:18;;;;;;;5.03;1.20;;;11.40;80.00;;;;;;5042242;28;20086;-76
2022/06/11 10:34:56;;;;;;;3.75;1.13;;;11.30;80.00;;;;;;5051363;28;20373;-76
2022/06/11 10:37:49;;;;;;;3.80;1.27;;;11.30;80.20;;;;;;5048023;28;20036;-74
2022/06/11 10:40:35;;;;;;;3.13;1.40;;;11.20;80.10;;;;;;5013954;28;20045;-72
2022/06/11 10:43:09;;;;;;;4.63;1.20;;;11.20;80.20;;;;;;5051124;28;20868;-72
2022/06/11 10:45:37;;;;;;;7.63;1.30;;;11.20;80.20;;;;;;5050695;28;20091;-71
2022/06/11 10:48:14;;;;;;;3.28;1.05;;;11.20;80.50;;;;;;5046212;28;20021;-71
2022/06/11 10:50:42;;;;;;;3.25;1.02;;;11.20;80.50;;;;;;5029833;28;20410;-73
2022/06/11 10:53:41;;;;;;;4.05;1.05;;;11.10;80.50;;;;;;5033533;28;20068;-72
2022/06/11 10:56:25;;;;;;;4.47;1.20;;;11.00;80.70;;;;;;5034026;28;20516;-74
2022/06/11 10:59:06;;;;;;;4.85;1.30;;;11.10;80.80;;;;;;5034567;28;20044;-71
2022/06/11 11:01:53;;;;;;;4.25;1.05;;;11.00;81.10;;;;;;5039538;28;20021;-71
2022/06/11 11:05:00;;;;;;;5.15;1.60;;;11.00;80.90;;;;;;5070228;28;20056;-75
2022/06/11 11:07:57;;;;;;;4.70;1.52;;;11.00;80.70;;;;;;5035298;28;20041;-72
2022/06/11 11:10:37;;;;;;;3.63;1.40;;;10.90;80.90;;;;;;5035247;28;20112;-72
2022/06/11 11:13:34;;;;;;;6.18;1.38;;;10.90;81.30;;;;;;5034883;28;20105;-71
2022/06/11 11:16:27;;;;;;;7.70;1.55;;;10.90;80.90;;;;;;5045703;28;20120;-73
2022/06/11 11:18:53;;;;;;;;;;;11.00;81.10;;;;;;5036380;28;20036;-73
2022/06/11 11:21:30;;;;;;;4.55;1.20;;;10.90;80.90;;;;;;5034336;28;20380;-73
2022/06/11 11:24:06;;;;;;;2.83;1.23;;;10.90;81.00;;;;;;5034374;28;20032;-72
2022/06/11 11:26:48;;;;;;;3.17;1.05;;;10.90;81.30;;;;;;5039500;28;20099;-73
2022/06/11 11:29:29;;;;;;;4.13;1.10;;;10.90;81.20;;;;;;5034588;28;20025;-72
2022/06/11 11:32:04;;;;;;;3.95;1.10;;;10.80;81.20;;;;;;5053802;28;20071;-74
2022/06/11 11:34:35;;;;;;;3.20;1.15;;;10.80;81.50;;;;;;5054449;28;20017;-74
2022/06/11 11:37:14;;;;;;;4.20;1.40;;;10.80;81.50;;;;;;5043206;28;20105;-76
2022/06/11 11:40:02;;;;;;;4.57;1.50;;;10.70;81.40;;;;;;5034001;28;20029;-72
2022/06/11 11:42:36;;;;;;;5.22;1.10;;;10.70;81.70;;;;;;5034471;28;20026;-72
2022/06/11 11:45:25;;;;;;;11.50;1.23;;;10.70;82.40;;;;;;5038461;28;20116;-76
2022/06/11 11:48:03;;;;;;;5.88;1.35;;;10.70;82.40;;;;;;5036210;28;20025;-71
2022/06/11 11:50:37;;;;;;;3.97;1.38;;;10.60;82.50;;;;;;5046103;28;20079;-75
2022/06/11 11:53:23;;;;;;;4.78;1.02;;;10.60;82.30;;;;;;5053132;28;20025;-71
2022/06/11 11:55:58;;;;;;;5.05;2.00;;;10.60;82.60;;;;;;5053296;28;20017;-75
2022/06/11 11:58:37;;;;;;;5.90;1.30;;;10.50;83.00;;;;;;5032309;28;20052;-74
2022/06/11 12:01:14;;;;;;;5.78;1.27;;;10.60;83.00;;;;;;5033059;28;20113;-76
2022/06/11 12:03:52;;;;;;;8.57;1.40;;;10.50;82.60;;;;;;5053711;28;20100;-72
2022/06/11 12:06:45;;;;;;;5.18;1.20;;;10.40;83.00;;;;;;5048457;28;20716;-65
2022/06/11 12:09:36;;;;;;;7.07;2.00;;;10.40;82.90;;;;;;5028242;28;20041;-71
2022/06/11 12:12:26;;;;;;;3.35;1.23;;;10.50;82.90;;;;;;5041074;28;20033;-68
2022/06/11 12:15:03;;;;;;;4.55;1.65;;;10.50;82.70;;;;;;5053748;28;20021;-74
2022/06/11 12:17:45;;;;;;;4.88;1.20;;;10.50;83.00;;;;;;5038299;28;20048;-71
2022/06/11 12:20:42;;;;;;;5.10;1.40;;;10.40;83.00;;;;;;5047674;28;20060;-70
2022/06/11 12:23:09;;;;;;;5.18;1.38;;;10.40;83.10;;;;;;5031309;28;20034;-69
2022/06/11 12:26:24;;;;;;;4.13;1.73;;;10.40;83.40;;;;;;5053296;28;20488;-73
2022/06/11 12:29:16;;;;;;;5.38;1.85;;;10.30;83.80;;;;;;5039436;28;20374;-72
2022/06/11 12:31:43;;;;;;;4.25;1.65;;;10.20;83.80;;;;;;5045872;28;20084;-73
2022/06/11 12:34:17;;;;;;;4.25;1.50;;;10.20;83.80;;;;;;5051090;28;20013;-74
2022/06/11 12:36:59;;;;;;;4.93;1.13;;;10.10;84.00;;;;;;5033829;28;20113;-72
2022/06/11 12:39:36;;;;;;;7.75;1.60;;;10.10;83.80;;;;;;5032523;28;20038;-72
2022/06/11 12:42:24;;;;;;;4.03;1.58;;;10.10;84.40;;;;;;5032968;28;20036;-71
2022/06/11 12:45:03;;;;;;;7.22;2.45;;;10.10;84.40;;;;;;5030842;28;20018;-74
2022/06/11 12:47:48;;;;;;;6.65;1.77;;;10.00;84.50;;;;;;5032679;28;20024;-76
2022/06/11 12:50:27;;;;;;;6.68;2.25;;;10.00;84.60;;;;;;5031637;28;20018;-72
2022/06/11 12:53:00;;;;;;;4.10;1.70;;;10.00;84.80;;;;;;5031387;28;20079;-71
2022/06/11 12:56:02;;;;;;;6.57;2.22;;;10.00;85.10;;;;;;5030007;28;20049;-73
2022/06/11 12:58:35;;;;;;;4.18;1.95;;;9.90;85.80;;;;;;5031877;28;20559;-75
2022/06/11 13:01:18;;;;;;;5.28;1.80;;;9.90;85.80;;;;;;5034250;28;20109;-72
2022/06/11 13:03:51;;;;;;;7.68;4.43;;;9.80;86.30;;;;;;5032672;28;20029;-72
2022/06/11 13:06:31;;;;;;;6.82;2.20;;;9.80;86.50;;;;;;5032300;28;20018;-73
2022/06/11 13:09:28;;;;;;;5.20;1.52;;;9.70;86.70;;;;;;5029769;28;20385;-70
2022/06/11 13:12:21;;;;;;;9.57;1.92;;;9.70;87.10;;;;;;5036518;28;20029;-71
2022/06/11 13:15:06;;;;;;;5.57;1.73;;;9.70;87.30;;;;;;5033868;28;20091;-70
2022/06/11 13:17:54;;;;;;;9.35;2.28;;;9.60;87.20;;;;;;5029947;28;20021;-72
2022/06/11 13:20:49;;;;;;;4.10;1.65;;;9.60;88.00;;;;;;5031634;28;20068;-68
2022/06/11 13:23:30;;;;;;;5.32;1.88;;;9.60;87.70;;;;;;5032894;28;20021;-73
2022/06/11 13:26:18;;;;;;;2.90;1.30;;;9.60;87.80;;;;;;5033135;28;20040;-72
2022/06/11 13:29:15;;;;;;;5.13;2.28;;;9.50;88.10;;;;;;5031786;28;20492;-72
2022/06/11 13:31:52;;;;;;;7.80;1.88;;;9.60;88.50;;;;;;5031707;28;20033;-74
2022/06/11 13:34:54;;;;;;;5.88;2.20;;;9.50;88.70;;;;;;5032400;28;20048;-69